Time;durP1;ratioP1;P1;durP2;ratioP2;P2;SDS_P1;SDS_P2;PMS_P1;PMS_P2;Temp;Humidity;BMP_temperature;BMP_pressure;BME280_temperature;BME280_humidity;BME280_pressure;Samples;Min_cycle;Max_cycle;Signal;HPM_P1;HPM_P2
2020/07/06 00:01:40;;;;;;;2.5;1.6;;;;;;;;;;;;;
2020/07/06 00:04:05;;;;;;;2;1.5;;;;;;;;;;;;;
2020/07/06 00:06:31;;;;;;;2.3;1.5;;;;;;;;;;;;;
2020/07/06 00:08:56;;;;;;;2.9;1.8;;;;;;;;;;;;;
2020/07/06 00:11:21;;;;;;;3.5;2;;;;;;;;;;;;;
2020/07/06 00:13:46;;;;;;;3.8;1.7;;;;;;;;;;;;;
2020/07/06 00:16:12;;;;;;;3.2;1.8;;;;;;;;;;;;;
2020/07/06 00:18:38;;;;;;;2.6;1.8;;;;;;;;;;;;;
2020/07/06 00:21:04;;;;;;;2.4;1.6;;;;;;;;;;;;;
2020/07/06 00:23:29;;;;;;;3.9;1.8;;;;;;;;;;;;;
2020/07/06 00:25:54;;;;;;;3.4;2;;;;;;;;;;;;;
2020/07/06 00:28:19;;;;;;;3.2;1.6;;;;;;;;;;;;;
2020/07/06 00:30:44;;;;;;;4.3;1.8;;;;;;;;;;;;;
2020/07/06 00:33:11;;;;;;;4.3;1.8;;;;;;;;;;;;;
2020/07/06 00:35:36;;;;;;;2.6;1.9;;;;;;;;;;;;;
2020/07/06 00:38:01;;;;;;;3.6;1.7;;;;;;;;;;;;;
2020/07/06 00:40:26;;;;;;;2.5;1.7;;;;;;;;;;;;;
2020/07/06 00:42:51;;;;;;;3;1.4;;;;;;;;;;;;;
2020/07/06 00:45:16;;;;;;;3.4;1.6;;;;;;;;;;;;;
2020/07/06 00:47:41;;;;;;;2.3;1.6;;;;;;;;;;;;;
2020/07/06 00:50:10;;;;;;;3.7;1.8;;;;;;;;;;;;;
2020/07/06 00:52:35;;;;;;;3.1;1.7;;;;;;;;;;;;;
2020/07/06 00:55:01;;;;;;;3.7;1.7;;;;;;;;;;;;;
2020/07/06 00:57:26;;;;;;;4.5;1.6;;;;;;;;;;;;;
2020/07/06 00:59:51;;;;;;;2.6;1.6;;;;;;;;;;;;;
2020/07/06 01:02:16;;;;;;;3.9;1.7;;;;;;;;;;;;;
2020/07/06 01:04:42;;;;;;;2.8;1.5;;;;;;;;;;;;;
2020/07/06 01:07:06;;;;;;;3.9;1.8;;;;;;;;;;;;;
2020/07/06 01:09:31;;;;;;;4.2;1.6;;;;;;;;;;;;;
2020/07/06 01:11:57;;;;;;;3.2;1.7;;;;;;;;;;;;;
2020/07/06 01:14:29;;;;;;;4;1.8;;;;;;;;;;;;;
2020/07/06 01:16:52;;;;;;;3.7;1.6;;;;;;;;;;;;;
2020/07/06 01:19:16;;;;;;;3.8;1.6;;;;;;;;;;;;;
2020/07/06 01:21:43;;;;;;;5.9;1.8;;;;;;;;;;;;;
2020/07/06 01:24:07;;;;;;;4.4;2;;;;;;;;;;;;;
2020/07/06 01:26:34;;;;;;;6;2.1;;;;;;;;;;;;;
2020/07/06 01:28:59;;;;;;;6.9;2.4;;;;;;;;;;;;;
2020/07/06 01:31:26;;;;;;;5.1;2.2;;;;;;;;;;;;;
2020/07/06 01:33:51;;;;;;;3.1;1.6;;;;;;;;;;;;;
2020/07/06 01:36:16;;;;;;;2.4;1.7;;;;;;;;;;;;;
2020/07/06 01:38:42;;;;;;;4.3;1.9;;;;;;;;;;;;;
2020/07/06 01:41:08;;;;;;;2.7;1.7;;;;;;;;;;;;;
2020/07/06 01:43:35;;;;;;;4.3;1.7;;;;;;;;;;;;;
2020/07/06 01:46:00;;;;;;;4.6;1.5;;;;;;;;;;;;;
2020/07/06 01:48:28;;;;;;;4.6;2;;;;;;;;;;;;;
2020/07/06 01:50:53;;;;;;;2.7;1.9;;;;;;;;;;;;;
2020/07/06 01:53:20;;;;;;;3.8;1.8;;;;;;;;;;;;;
2020/07/06 01:55:45;;;;;;;2.9;1.8;;;;;;;;;;;;;
2020/07/06 01:58:11;;;;;;;3.3;1.6;;;;;;;;;;;;;
2020/07/06 02:00:41;;;;;;;6.8;2.3;;;;;;;;;;;;;
2020/07/06 02:03:04;;;;;;;3;1.8;;;;;;;;;;;;;
2020/07/06 02:05:30;;;;;;;2.5;1.8;;;;;;;;;;;;;
2020/07/06 02:07:58;;;;;;;2.8;1.6;;;;;;;;;;;;;
2020/07/06 02:10:22;;;;;;;4.6;1.7;;;;;;;;;;;;;
2020/07/06 02:12:49;;;;;;;5.3;1.8;;;;;;;;;;;;;
2020/07/06 02:15:14;;;;;;;2.9;1.6;;;;;;;;;;;;;
2020/07/06 02:17:39;;;;;;;5.5;1.9;;;;;;;;;;;;;
2020/07/06 02:20:05;;;;;;;3.6;1.7;;;;;;;;;;;;;
2020/07/06 02:22:32;;;;;;;3.4;1.9;;;;;;;;;;;;;
2020/07/06 02:24:57;;;;;;;4.6;1.9;;;;;;;;;;;;;
2020/07/06 02:27:24;;;;;;;3;2;;;;;;;;;;;;;
2020/07/06 02:29:47;;;;;;;4.1;1.8;;;;;;;;;;;;;
2020/07/06 02:32:13;;;;;;;6.9;1.9;;;;;;;;;;;;;
2020/07/06 02:34:38;;;;;;;5.9;2.2;;;;;;;;;;;;;
2020/07/06 02:37:05;;;;;;;5.8;1.9;;;;;;;;;;;;;
2020/07/06 02:39:30;;;;;;;4.3;1.9;;;;;;;;;;;;;
2020/07/06 02:41:57;;;;;;;4.5;2;;;;;;;;;;;;;
2020/07/06 02:44:21;;;;;;;4.4;1.8;;;;;;;;;;;;;
2020/07/06 02:46:49;;;;;;;7.9;2.1;;;;;;;;;;;;;
2020/07/06 02:49:14;;;;;;;4.8;1.9;;;;;;;;;;;;;
2020/07/06 02:51:39;;;;;;;6.3;1.7;;;;;;;;;;;;;
2020/07/06 02:54:04;;;;;;;4.2;2;;;;;;;;;;;;;
2020/07/06 02:56:29;;;;;;;7.5;1.9;;;;;;;;;;;;;
2020/07/06 02:58:55;;;;;;;7.4;2.3;;;;;;;;;;;;;
2020/07/06 03:01:20;;;;;;;5.9;2;;;;;;;;;;;;;
2020/07/06 03:03:51;;;;;;;6.1;2;;;;;;;;;;;;;
2020/07/06 03:06:19;;;;;;;7;2.1;;;;;;;;;;;;;
2020/07/06 03:08:44;;;;;;;5.7;2.1;;;;;;;;;;;;;
2020/07/06 03:11:09;;;;;;;4;1.8;;;;;;;;;;;;;
2020/07/06 03:13:34;;;;;;;3;1.8;;;;;;;;;;;;;
2020/07/06 03:16:01;;;;;;;6.1;2;;;;;;;;;;;;;
2020/07/06 03:18:26;;;;;;;4.4;2;;;;;;;;;;;;;
2020/07/06 03:20:52;;;;;;;4.3;1.8;;;;;;;;;;;;;
2020/07/06 03:23:17;;;;;;;5.2;2.3;;;;;;;;;;;;;
2020/07/06 03:25:45;;;;;;;3.3;1.8;;;;;;;;;;;;;
2020/07/06 03:28:08;;;;;;;5.2;2.1;;;;;;;;;;;;;
2020/07/06 03:30:35;;;;;;;4.6;2.2;;;;;;;;;;;;;
2020/07/06 03:33:00;;;;;;;3.2;2;;;;;;;;;;;;;
2020/07/06 03:35:25;;;;;;;4.6;2;;;;;;;;;;;;;
2020/07/06 03:37:51;;;;;;;3.6;1.9;;;;;;;;;;;;;
2020/07/06 03:40:17;;;;;;;3.9;2.1;;;;;;;;;;;;;
2020/07/06 03:42:42;;;;;;;3.7;2;;;;;;;;;;;;;
2020/07/06 03:45:07;;;;;;;5.2;2;;;;;;;;;;;;;
2020/07/06 03:47:33;;;;;;;4.5;1.7;;;;;;;;;;;;;
2020/07/06 03:49:58;;;;;;;4.9;1.9;;;;;;;;;;;;;
2020/07/06 03:52:24;;;;;;;7.1;2.1;;;;;;;;;;;;;
2020/07/06 03:54:49;;;;;;;6.1;2.3;;;;;;;;;;;;;
2020/07/06 03:57:18;;;;;;;3.9;2;;;;;;;;;;;;;
2020/07/06 03:59:46;;;;;;;4.6;1.9;;;;;;;;;;;;;
2020/07/06 04:02:42;;;;;;;4.7;1.9;;;;;;;16.99;83.33105;937.3875;;;;
2020/07/06 04:05:09;;;;;;;8.4;2.6;;;;;;;17.05;83.62012;937.4183;;;;
2020/07/06 04:07:44;;;;;;;8.3;2.3;;;;;;;17.18;82.63477;937.3951;;;;
2020/07/06 04:10:17;;;;;;;5.4;2.1;;;;;;;17.22;82.24805;937.3575;;;;
2020/07/06 04:12:42;;;;;;;5.3;2.3;;;;;;;17.31;81.98633;937.3295;;;;
2020/07/06 04:15:18;;;;;;;5.6;2;;;;;;;17.4;81.5625;937.2371;;;;
2020/07/06 04:17:38;;;;;;;5.3;2.1;;;;;;;17.46;81.70215;937.2547;;;;
2020/07/06 04:20:03;;;;;;;7.4;2.4;;;;;;;17.46;81.21484;937.1572;;;;
2020/07/06 04:22:30;;;;;;;4.2;2.1;;;;;;;17.41;81.39063;937.1669;;;;
2020/07/06 04:24:56;;;;;;;5.2;2;;;;;;;17.29;81.87988;937.1914;;;;
2020/07/06 04:27:20;;;;;;;12.4;2.8;;;;;;;17.28;82.15527;937.0532;;;;
2020/07/06 04:29:48;;;;;;;8.6;2.2;;;;;;;17.48;81.78809;937.1021;;;;
2020/07/06 04:32:20;;;;;;;7.7;2.3;;;;;;;17.55;81.17285;937.0726;;;;
2020/07/06 04:34:50;;;;;;;6.1;2;;;;;;;17.66;80.99609;937.0845;;;;
2020/07/06 04:37:15;;;;;;;7.4;2.1;;;;;;;17.72;80.50879;937.0489;;;;
2020/07/06 04:39:43;;;;;;;7.4;2.4;;;;;;;17.77;80.38867;937.0359;;;;
2020/07/06 04:42:08;;;;;;;9.3;2.2;;;;;;;17.83;80.22656;937.0687;;;;
2020/07/06 04:44:33;;;;;;;6.7;2.1;;;;;;;17.87;80.2334;937.084;;;;
2020/07/06 04:46:59;;;;;;;6.4;1.8;;;;;;;17.92;79.88281;937.095;;;;
2020/07/06 04:49:25;;;;;;;3.1;1.8;;;;;;;18.01;80.03906;937.0522;;;;
2020/07/06 04:51:53;;;;;;;3.5;1.8;;;;;;;18.02;79.29688;937.0715;;;;
2020/07/06 04:54:18;;;;;;;4.1;2.2;;;;;;;18.02;79.15723;937.0852;;;;
2020/07/06 04:56:51;;;;;;;4.6;2.2;;;;;;;18.03;79.28711;937.0311;;;;
2020/07/06 04:59:15;;;;;;;4.3;2.1;;;;;;;18.03;79.22852;936.9771;;;;
2020/07/06 05:01:46;;;;;;;6.6;2.1;;;;;;;18.09;79.22852;937.1119;;;;
2020/07/06 05:04:12;;;;;;;6.5;2.1;;;;;;;18.14;79.08594;937.1303;;;;
2020/07/06 05:06:42;;;;;;;4.2;2;;;;;;;18.15;79.25;937.1211;;;;
2020/07/06 05:09:12;;;;;;;5.2;2.5;;;;;;;18.53;79.97168;937.0399;;;;
2020/07/06 05:11:41;;;;;;;4.2;1.5;;;;;;;19.57;74.55273;936.9575;;;;
2020/07/06 05:14:05;;;;;;;6.3;2.1;;;;;;;20.51;71.05566;936.9363;;;;
2020/07/06 05:16:35;;;;;;;4.5;1.7;;;;;;;21.3;67.99902;936.998;;;;
2020/07/06 05:19:02;;;;;;;4.4;1.5;;;;;;;22.29;65.08008;936.8851;;;;
2020/07/06 05:21:28;;;;;;;4.9;1.5;;;;;;;22.79;63.92969;936.8315;;;;
2020/07/06 05:23:53;;;;;;;4;1.5;;;;;;;24.25;58.67578;936.8367;;;;
2020/07/06 05:26:21;;;;;;;3.9;1.4;;;;;;;24.82;56.95703;936.8428;;;;
2020/07/06 05:28:46;;;;;;;4.5;1.3;;;;;;;25.05;56.125;936.8049;;;;
2020/07/06 05:31:13;;;;;;;5.1;1.4;;;;;;;26.47;52.23145;936.7452;;;;
2020/07/06 05:33:38;;;;;;;5.8;1.9;;;;;;;25.77;54.46582;936.6711;;;;
2020/07/06 05:36:07;;;;;;;5.7;1.3;;;;;;;25.76;54.97266;936.6766;;;;
2020/07/06 05:38:34;;;;;;;4.9;1.1;;;;;;;26.15;54.42871;936.646;;;;
2020/07/06 05:41:04;;;;;;;5.1;1.2;;;;;;;26.53;52.41504;936.5652;;;;
2020/07/06 05:43:29;;;;;;;4.5;1.4;;;;;;;27.52;47.06055;936.537;;;;
2020/07/06 05:45:56;;;;;;;3.5;1.1;;;;;;;27.26;47.46094;936.493;;;;
2020/07/06 05:48:21;;;;;;;3.6;1.1;;;;;;;28.23;46.64648;936.4931;;;;
2020/07/06 05:50:49;;;;;;;3.4;1.2;;;;;;;28.84;43.91504;936.5278;;;;
2020/07/06 05:53:18;;;;;;;3.9;1.1;;;;;;;28.57;43.23438;936.4648;;;;
2020/07/06 05:55:52;;;;;;;5.7;1.3;;;;;;;27.77;45.74512;936.4141;;;;
2020/07/06 05:58:22;;;;;;;8.5;1.6;;;;;;;26.44;48.58008;936.3731;;;;
2020/07/06 14:45:34;;;;;;;4;1.2;;;;;;;18.95;74.63574;937.7068;;;;
2020/07/06 14:48:02;;;;;;;1.9;1.5;;;;;;;18.68;76.27539;937.83;;;;
2020/07/06 14:50:27;;;;;;;2.9;1.6;;;;;;;18.36;76.98633;937.7239;;;;
2020/07/06 14:52:54;;;;;;;2.7;1.6;;;;;;;18.57;76.43066;937.7108;;;;
2020/07/06 14:55:19;;;;;;;2.8;1.6;;;;;;;18.29;77.74219;937.7078;;;;
2020/07/06 14:57:46;;;;;;;2.4;1.7;;;;;;;18.32;78.03711;937.7925;;;;
2020/07/06 15:00:13;;;;;;;2.2;1.8;;;;;;;17.98;79.44141;937.9149;;;;
2020/07/06 15:02:38;;;;;;;3.6;1.9;;;;;;;17.7;81.13184;937.9836;;;;
2020/07/06 15:05:03;;;;;;;3.3;2;;;;;;;17.51;82.08301;937.9832;;;;
2020/07/06 15:07:34;;;;;;;3.1;2.4;;;;;;;17.53;82.2373;938.0181;;;;
2020/07/06 15:10:01;;;;;;;4.2;2.4;;;;;;;17.4;82.70117;938.0613;;;;
2020/07/06 15:12:29;;;;;;;3.5;2.7;;;;;;;17.48;83.27344;938.1309;;;;
2020/07/06 15:14:51;;;;;;;3.2;2.2;;;;;;;17.69;81.99902;938.0934;;;;
2020/07/06 15:17:18;;;;;;;2.2;2;;;;;;;17.92;81.00977;938.1094;;;;
2020/07/06 15:19:43;;;;;;;2.3;1.7;;;;;;;17.9;79.63574;938.0984;;;;
2020/07/06 15:22:08;;;;;;;4;2;;;;;;;17.64;81.29395;938.1221;;;;
2020/07/06 15:24:33;;;;;;;2.1;1.5;;;;;;;17.69;80.55957;938.1384;;;;
2020/07/06 15:27:02;;;;;;;2.8;1.4;;;;;;;17.62;79.9082;938.1233;;;;
2020/07/06 15:29:27;;;;;;;3.1;1.6;;;;;;;17.85;79.83496;938.2558;;;;
2020/07/06 15:31:53;;;;;;;3.5;1.4;;;;;;;17.88;78.1582;938.2269;;;;
2020/07/06 15:35:24;;;;;;;3.3;1.4;;;;;;;18.07;76.85547;938.2761;;;;
2020/07/06 15:37:49;;;;;;;1.8;1.2;;;;;;;17.97;75.76953;938.2873;;;;
2020/07/06 15:40:20;;;;;;;3.1;1.4;;;;;;;17.86;76.94531;938.3401;;;;
2020/07/06 15:42:47;;;;;;;3.7;1.6;;;;;;;17.81;77.11133;938.3747;;;;
2020/07/06 15:45:12;;;;;;;2.7;1.6;;;;;;;17.86;76.83105;938.4191;;;;
2020/07/06 15:47:38;;;;;;;3.5;1.7;;;;;;;17.55;77.29785;938.4157;;;;
2020/07/06 15:50:02;;;;;;;3.5;1.6;;;;;;;17.47;76.58887;938.4258;;;;
2020/07/06 15:52:30;;;;;;;3.6;1.6;;;;;;;17.27;76.31934;938.4031;;;;
2020/07/06 15:54:59;;;;;;;3.8;1.4;;;;;;;17.32;76.72363;938.3541;;;;
2020/07/06 15:57:27;;;;;;;4.3;1.6;;;;;;;17.18;78.75098;938.4347;;;;
2020/07/06 15:59:52;;;;;;;2.6;1.6;;;;;;;17.3;78.37793;938.4984;;;;
2020/07/06 16:02:20;;;;;;;3.5;1.6;;;;;;;17.35;78.39941;938.4935;;;;
2020/07/06 16:04:45;;;;;;;3;1.5;;;;;;;17.31;78.73926;938.5521;;;;
2020/07/06 16:07:12;;;;;;;4.3;1.5;;;;;;;16.77;77.39258;938.6606;;;;
2020/07/06 16:09:37;;;;;;;3;1.1;;;;;;;17.02;78.3418;938.7366;;;;
2020/07/06 16:12:03;;;;;;;4.1;1.5;;;;;;;17.09;80.6709;938.7814;;;;
2020/07/06 16:14:28;;;;;;;2.7;1.4;;;;;;;17.01;82.41699;938.6021;;;;
2020/07/06 16:16:55;;;;;;;3;1.5;;;;;;;16.85;83.26953;938.848;;;;
2020/07/06 16:19:21;;;;;;;3.4;1.6;;;;;;;16.86;85.21484;939.0056;;;;
2020/07/06 16:21:47;;;;;;;3.6;1.9;;;;;;;16.85;84.94922;939.0283;;;;
2020/07/06 16:24:12;;;;;;;4;1.9;;;;;;;;;;;;;
2020/07/06 16:26:39;;;;;;;2.8;1.8;;;;;;;;;;;;;
2020/07/06 16:29:03;;;;;;;3.9;1.9;;;;;;;;;;;;;
2020/07/06 16:31:29;;;;;;;2.8;1.8;;;;;;;;;;;;;
2020/07/06 16:33:54;;;;;;;3.6;2;;;;;;;;;;;;;
2020/07/06 16:36:21;;;;;;;3.5;2;;;;;;;;;;;;;
2020/07/06 16:38:46;;;;;;;3.9;1.7;;;;;;;;;;;;;
2020/07/06 16:41:12;;;;;;;3;1.9;;;;;;;;;;;;;
2020/07/06 16:43:37;;;;;;;3.4;1.9;;;;;;;;;;;;;
2020/07/06 16:46:03;;;;;;;6.2;3;;;;;;;;;;;;;
2020/07/06 16:48:27;;;;;;;3.6;2.5;;;;;;;;;;;;;
2020/07/06 16:50:53;;;;;;;3.8;2.7;;;;;;;;;;;;;
2020/07/06 16:53:20;;;;;;;8.7;5.3;;;;;;;;;;;;;
2020/07/06 16:55:43;;;;;;;13.4;7.9;;;;;;;;;;;;;
2020/07/06 16:58:08;;;;;;;8.4;5;;;;;;;;;;;;;
2020/07/06 17:00:33;;;;;;;9;5.4;;;;;;;;;;;;;
2020/07/06 17:02:58;;;;;;;9.6;5.3;;;;;;;;;;;;;
2020/07/06 17:05:23;;;;;;;8;4.8;;;;;;;;;;;;;
2020/07/06 17:07:48;;;;;;;5.4;2.6;;;;;;;;;;;;;
2020/07/06 17:10:14;;;;;;;5.3;2.3;;;;;;;;;;;;;
2020/07/06 17:12:42;;;;;;;4.3;2;;;;;;;;;;;;;
2020/07/06 17:15:08;;;;;;;3.6;2.1;;;;;;;;;;;;;
2020/07/06 17:17:33;;;;;;;3.3;1.9;;;;;;;;;;;;;
2020/07/06 17:19:58;;;;;;;3.9;2.1;;;;;;;;;;;;;
2020/07/06 17:22:23;;;;;;;3.5;2.1;;;;;;;;;;;;;
2020/07/06 17:24:52;;;;;;;3.9;2.1;;;;;;;;;;;;;
2020/07/06 17:27:14;;;;;;;4.4;2;;;;;;;;;;;;;
2020/07/06 17:29:39;;;;;;;3.8;2.1;;;;;;;;;;;;;
2020/07/06 17:32:04;;;;;;;3.1;2.1;;;;;;;;;;;;;
2020/07/06 17:34:29;;;;;;;4.4;1.9;;;;;;;;;;;;;
2020/07/06 17:36:54;;;;;;;3.4;2;;;;;;;;;;;;;
2020/07/06 17:39:20;;;;;;;5.9;2.3;;;;;;;;;;;;;
2020/07/06 17:41:45;;;;;;;3.5;2;;;;;;;;;;;;;
2020/07/06 17:44:10;;;;;;;3.2;2.1;;;;;;;;;;;;;
2020/07/06 17:46:35;;;;;;;3.4;2;;;;;;;;;;;;;
2020/07/06 17:49:00;;;;;;;6.3;3.9;;;;;;;;;;;;;
2020/07/06 17:51:26;;;;;;;6.5;3.3;;;;;;;;;;;;;
2020/07/06 17:53:51;;;;;;;6.5;2.8;;;;;;;;;;;;;
2020/07/06 17:56:18;;;;;;;5.1;3;;;;;;;;;;;;;
2020/07/06 17:58:41;;;;;;;4;2.5;;;;;;;;;;;;;
2020/07/06 18:01:06;;;;;;;4.3;3;;;;;;;;;;;;;
2020/07/06 18:03:33;;;;;;;5;3.1;;;;;;;;;;;;;
2020/07/06 18:05:58;;;;;;;4.3;3;;;;;;;;;;;;;
2020/07/06 18:08:25;;;;;;;7.7;4.1;;;;;;;;;;;;;
2020/07/06 18:10:50;;;;;;;6.5;3.7;;;;;;;;;;;;;
2020/07/06 18:13:16;;;;;;;5.1;2.9;;;;;;;;;;;;;
2020/07/06 18:15:41;;;;;;;6.4;3.4;;;;;;;;;;;;;
2020/07/06 18:18:07;;;;;;;5.4;3;;;;;;;;;;;;;
2020/07/06 18:20:32;;;;;;;4.7;2.9;;;;;;;;;;;;;
2020/07/06 18:22:58;;;;;;;6.2;2.6;;;;;;;;;;;;;
2020/07/06 18:25:23;;;;;;;4.8;2.3;;;;;;;;;;;;;
2020/07/06 18:27:49;;;;;;;3.4;2.4;;;;;;;;;;;;;
2020/07/06 18:30:16;;;;;;;4.6;2.4;;;;;;;;;;;;;
2020/07/06 18:32:39;;;;;;;2.6;2.4;;;;;;;;;;;;;
2020/07/06 18:35:04;;;;;;;3.9;2.6;;;;;;;;;;;;;
2020/07/06 18:37:29;;;;;;;3.7;2.2;;;;;;;;;;;;;
2020/07/06 18:39:54;;;;;;;3.8;2.2;;;;;;;;;;;;;
2020/07/06 18:42:20;;;;;;;3.3;2.2;;;;;;;;;;;;;
2020/07/06 18:44:45;;;;;;;4.2;2.7;;;;;;;;;;;;;
2020/07/06 18:47:10;;;;;;;3.7;2.4;;;;;;;;;;;;;
2020/07/06 18:49:35;;;;;;;3.3;2.1;;;;;;;;;;;;;
2020/07/06 18:52:01;;;;;;;3.7;2.3;;;;;;;;;;;;;
2020/07/06 18:54:26;;;;;;;3.3;2.1;;;;;;;;;;;;;
2020/07/06 18:56:51;;;;;;;8.3;3;;;;;;;;;;;;;
2020/07/06 18:59:16;;;;;;;4.2;2.2;;;;;;;;;;;;;
2020/07/06 19:01:41;;;;;;;4.5;1.7;;;;;;;;;;;;;
2020/07/06 19:04:06;;;;;;;5.7;2.1;;;;;;;;;;;;;
2020/07/06 19:06:31;;;;;;;5.3;2;;;;;;;;;;;;;
2020/07/06 19:08:56;;;;;;;5.5;2.1;;;;;;;;;;;;;
2020/07/06 19:11:21;;;;;;;5.4;1.8;;;;;;;;;;;;;
2020/07/06 19:13:47;;;;;;;6.1;2.1;;;;;;;;;;;;;
2020/07/06 19:16:12;;;;;;;7.5;2.4;;;;;;;;;;;;;
2020/07/06 19:18:37;;;;;;;6.8;2.1;;;;;;;;;;;;;
2020/07/06 19:21:02;;;;;;;6.7;2.1;;;;;;;;;;;;;
2020/07/06 19:23:27;;;;;;;9.1;2.4;;;;;;;;;;;;;
2020/07/06 19:25:53;;;;;;;9.2;2.3;;;;;;;;;;;;;
2020/07/06 19:28:18;;;;;;;8.8;2.6;;;;;;;;;;;;;
2020/07/06 19:30:43;;;;;;;9.8;2.8;;;;;;;;;;;;;
2020/07/06 19:33:08;;;;;;;8.2;2.8;;;;;;;;;;;;;
2020/07/06 19:35:35;;;;;;;10.5;2.7;;;;;;;;;;;;;
2020/07/06 19:37:59;;;;;;;13.6;3;;;;;;;;;;;;;
2020/07/06 19:40:24;;;;;;;11.4;2.9;;;;;;;;;;;;;
2020/07/06 19:42:49;;;;;;;10.8;2.7;;;;;;;;;;;;;
2020/07/06 19:45:18;;;;;;;11.3;3;;;;;;;;;;;;;
2020/07/06 19:47:44;;;;;;;11;2.7;;;;;;;;;;;;;
2020/07/06 19:50:09;;;;;;;11.4;2.8;;;;;;;;;;;;;
2020/07/06 19:52:34;;;;;;;7.9;2.6;;;;;;;;;;;;;
2020/07/06 19:55:00;;;;;;;10.5;2.7;;;;;;;;;;;;;
2020/07/06 19:57:24;;;;;;;13.7;3.1;;;;;;;;;;;;;
2020/07/06 19:59:49;;;;;;;11;3.1;;;;;;;;;;;;;
2020/07/06 20:02:18;;;;;;;8;2.4;;;;;;;;;;;;;
2020/07/06 20:04:42;;;;;;;9.4;2.8;;;;;;;;;;;;;
2020/07/06 20:07:06;;;;;;;10.9;2.6;;;;;;;;;;;;;
2020/07/06 20:09:31;;;;;;;10.6;3.1;;;;;;;;;;;;;
2020/07/06 20:11:57;;;;;;;10.2;3;;;;;;;;;;;;;
2020/07/06 20:14:22;;;;;;;9.7;3.1;;;;;;;;;;;;;
2020/07/06 20:16:47;;;;;;;11;3.1;;;;;;;;;;;;;
2020/07/06 20:19:12;;;;;;;10.4;3;;;;;;;;;;;;;
2020/07/06 20:21:37;;;;;;;9.5;3.2;;;;;;;;;;;;;
2020/07/06 20:24:03;;;;;;;9.2;2.9;;;;;;;;;;;;;
2020/07/06 20:26:29;;;;;;;10.1;3.1;;;;;;;;;;;;;
2020/07/06 20:28:55;;;;;;;8.5;2.9;;;;;;;;;;;;;
2020/07/06 20:31:20;;;;;;;8.3;2.5;;;;;;;;;;;;;
2020/07/06 20:33:46;;;;;;;11.6;2.9;;;;;;;;;;;;;
2020/07/06 20:36:11;;;;;;;7.5;2.6;;;;;;;;;;;;;
2020/07/06 20:38:38;;;;;;;8.6;2.5;;;;;;;;;;;;;
2020/07/06 20:41:03;;;;;;;9.8;2.6;;;;;;;;;;;;;
2020/07/06 20:43:29;;;;;;;7.8;2.6;;;;;;;;;;;;;
2020/07/06 20:45:54;;;;;;;6.5;2.4;;;;;;;;;;;;;
2020/07/06 20:48:19;;;;;;;10;2.6;;;;;;;;;;;;;
2020/07/06 20:50:44;;;;;;;7.9;2.2;;;;;;;;;;;;;
2020/07/06 20:53:09;;;;;;;10.5;2.7;;;;;;;;;;;;;
2020/07/06 20:55:36;;;;;;;8;2.5;;;;;;;;;;;;;
2020/07/06 20:58:00;;;;;;;8.4;2.9;;;;;;;;;;;;;
2020/07/06 21:00:25;;;;;;;10;2.6;;;;;;;;;;;;;
2020/07/06 21:02:50;;;;;;;8.7;3.1;;;;;;;;;;;;;
2020/07/06 21:05:18;;;;;;;9.5;2.7;;;;;;;;;;;;;
2020/07/06 21:07:40;;;;;;;9.2;3;;;;;;;;;;;;;
2020/07/06 21:10:06;;;;;;;8;2.5;;;;;;;;;;;;;
2020/07/06 21:12:30;;;;;;;7.7;2.7;;;;;;;;;;;;;
2020/07/06 21:14:55;;;;;;;10.3;2.4;;;;;;;;;;;;;
2020/07/06 21:17:20;;;;;;;9.3;2.9;;;;;;;;;;;;;
2020/07/06 21:19:45;;;;;;;8.7;2.9;;;;;;;;;;;;;
2020/07/06 21:22:11;;;;;;;8.4;2.6;;;;;;;;;;;;;
2020/07/06 21:24:39;;;;;;;8.9;2.3;;;;;;;;;;;;;
2020/07/06 21:27:03;;;;;;;7.9;2.4;;;;;;;;;;;;;
2020/07/06 21:29:30;;;;;;;6.5;2.4;;;;;;;;;;;;;
2020/07/06 21:31:57;;;;;;;7;2.4;;;;;;;;;;;;;
2020/07/06 21:34:24;;;;;;;6.3;2.4;;;;;;;;;;;;;
2020/07/06 21:36:49;;;;;;;10;2.3;;;;;;;;;;;;;
2020/07/06 21:39:14;;;;;;;7.7;2.6;;;;;;;;;;;;;
2020/07/06 21:41:39;;;;;;;7;2.5;;;;;;;;;;;;;
2020/07/06 21:44:04;;;;;;;7.9;2.7;;;;;;;;;;;;;
2020/07/06 21:46:31;;;;;;;7.1;2.7;;;;;;;;;;;;;
2020/07/06 21:48:56;;;;;;;8.8;2.8;;;;;;;;;;;;;
2020/07/06 21:51:21;;;;;;;7.5;2.5;;;;;;;;;;;;;
2020/07/06 21:53:47;;;;;;;10;2.4;;;;;;;;;;;;;
2020/07/06 21:56:12;;;;;;;8.2;2.5;;;;;;;;;;;;;
2020/07/06 21:58:38;;;;;;;8.2;2.5;;;;;;;;;;;;;
2020/07/06 22:01:03;;;;;;;6.8;2.4;;;;;;;;;;;;;
2020/07/06 22:03:29;;;;;;;9.5;2.3;;;;;;;;;;;;;
2020/07/06 22:05:54;;;;;;;8.9;2.7;;;;;;;;;;;;;
2020/07/06 22:08:18;;;;;;;6.9;2.4;;;;;;;;;;;;;
2020/07/06 22:10:44;;;;;;;7;2.7;;;;;;;;;;;;;
2020/07/06 22:13:09;;;;;;;8.9;3;;;;;;;;;;;;;
2020/07/06 22:15:35;;;;;;;6.2;2.4;;;;;;;;;;;;;
2020/07/06 22:18:00;;;;;;;7.2;2.6;;;;;;;;;;;;;
2020/07/06 22:20:25;;;;;;;8.1;2.6;;;;;;;;;;;;;
2020/07/06 22:22:50;;;;;;;9.2;2.8;;;;;;;;;;;;;
2020/07/06 22:25:15;;;;;;;6.7;2.7;;;;;;;;;;;;;
2020/07/06 22:27:40;;;;;;;8.4;2.7;;;;;;;;;;;;;
2020/07/06 22:30:05;;;;;;;9.8;2.5;;;;;;;;;;;;;
2020/07/06 22:32:31;;;;;;;9.5;2.9;;;;;;;;;;;;;
2020/07/06 22:34:55;;;;;;;8.1;2.7;;;;;;;;;;;;;
2020/07/06 22:37:20;;;;;;;6.8;2.6;;;;;;;;;;;;;
2020/07/06 22:39:46;;;;;;;6.8;2.7;;;;;;;;;;;;;
2020/07/06 22:42:11;;;;;;;6.8;2.4;;;;;;;;;;;;;
2020/07/06 22:44:36;;;;;;;10;2.7;;;;;;;;;;;;;
2020/07/06 22:47:01;;;;;;;8.6;2.5;;;;;;;;;;;;;
2020/07/06 22:49:27;;;;;;;11.1;2.8;;;;;;;;;;;;;
2020/07/06 22:51:51;;;;;;;8;2.4;;;;;;;;;;;;;
2020/07/06 22:54:16;;;;;;;7.6;2.6;;;;;;;;;;;;;
2020/07/06 22:56:41;;;;;;;6.6;2.4;;;;;;;;;;;;;
2020/07/06 22:59:07;;;;;;;6.4;2.6;;;;;;;;;;;;;
2020/07/06 23:01:32;;;;;;;8.2;2.5;;;;;;;;;;;;;
2020/07/06 23:03:57;;;;;;;11.7;2.5;;;;;;;;;;;;;
2020/07/06 23:06:22;;;;;;;6.5;2.4;;;;;;;;;;;;;
2020/07/06 23:08:49;;;;;;;8.6;2.6;;;;;;;;;;;;;
2020/07/06 23:11:14;;;;;;;5.8;2.4;;;;;;;;;;;;;
2020/07/06 23:13:39;;;;;;;8.4;2.4;;;;;;;;;;;;;
2020/07/06 23:16:04;;;;;;;8;2.5;;;;;;;;;;;;;
2020/07/06 23:18:29;;;;;;;8.4;2.5;;;;;;;;;;;;;
2020/07/06 23:20:54;;;;;;;7.1;2.3;;;;;;;;;;;;;
2020/07/06 23:23:19;;;;;;;7.1;2.2;;;;;;;;;;;;;
2020/07/06 23:25:45;;;;;;;10.4;2.7;;;;;;;;;;;;;
2020/07/06 23:28:10;;;;;;;8.9;2.4;;;;;;;;;;;;;
2020/07/06 23:30:37;;;;;;;7;2.5;;;;;;;;;;;;;
2020/07/06 23:33:02;;;;;;;10.2;2.6;;;;;;;;;;;;;
2020/07/06 23:35:27;;;;;;;7.5;2.7;;;;;;;;;;;;;
2020/07/06 23:37:52;;;;;;;11.1;2.3;;;;;;;;;;;;;
2020/07/06 23:40:17;;;;;;;6.6;2.5;;;;;;;;;;;;;
2020/07/06 23:42:42;;;;;;;7.8;2.7;;;;;;;;;;;;;
2020/07/06 23:45:07;;;;;;;7.7;2.5;;;;;;;;;;;;;
2020/07/06 23:47:33;;;;;;;8.6;2.6;;;;;;;;;;;;;
2020/07/06 23:49:57;;;;;;;6;2.3;;;;;;;;;;;;;
2020/07/06 23:52:22;;;;;;;6.7;2.3;;;;;;;;;;;;;
2020/07/06 23:54:48;;;;;;;8.6;2.6;;;;;;;;;;;;;
2020/07/06 23:57:14;;;;;;;9.4;2.8;;;;;;;;;;;;;
2020/07/06 23:59:42;;;;;;;7.6;2.5;;;;;;;;;;;;;
